createdAt,value
2023-03-30T00:01:57.364Z,99.70
2023-03-30T00:04:28.947Z,99.80
2023-03-30T00:07:00.397Z,99.80
2023-03-30T00:09:33.247Z,99.70
2023-03-30T00:12:04.918Z,99.60
2023-03-30T00:14:37.442Z,99.80
2023-03-30T00:17:08.952Z,99.70
2023-03-30T00:19:40.127Z,99.60
2023-03-30T00:22:12.606Z,99.60
2023-03-30T00:24:48.044Z,99.50
2023-03-30T00:27:19.247Z,99.70
2023-03-30T00:29:50.081Z,99.90
2023-03-30T00:32:21.599Z,99.90
2023-03-30T00:34:52.829Z,99.90
2023-03-30T00:37:24.525Z,99.90
2023-03-30T00:39:55.498Z,99.50
2023-03-30T00:42:27.374Z,99.20
2023-03-30T00:45:20.419Z,99.20
2023-03-30T00:47:54.338Z,99.00
2023-03-30T00:50:28.599Z,98.90
2023-03-30T00:53:02.181Z,98.70
2023-03-30T00:55:34.445Z,98.60
2023-03-30T00:58:06.364Z,98.40
2023-03-30T01:00:39.784Z,98.30
2023-03-30T01:03:16.358Z,98.20
2023-03-30T01:05:48.484Z,98.10
2023-03-30T01:08:21.179Z,97.90
2023-03-30T01:10:53.816Z,98.10
2023-03-30T01:13:25.059Z,97.90
2023-03-30T01:16:04.846Z,97.70
2023-03-30T01:18:41.224Z,97.60
2023-03-30T01:21:31.037Z,97.50
2023-03-30T01:24:22.477Z,97.40
2023-03-30T01:26:59.005Z,97.20
2023-03-30T01:29:50.705Z,97.00
2023-03-30T01:32:46.834Z,96.90
2023-03-30T01:35:32.062Z,96.70
2023-03-30T01:38:11.561Z,96.20
2023-03-30T01:40:54.838Z,96.20
2023-03-30T01:43:28.584Z,96.20
2023-03-30T01:46:14.975Z,96.20
2023-03-30T01:48:53.136Z,96.00
2023-03-30T01:51:26.866Z,95.40
2023-03-30T01:54:21.723Z,95.30
2023-03-30T01:57:07.636Z,95.50
2023-03-30T01:59:41.246Z,95.30
2023-03-30T02:02:14.229Z,94.90
2023-03-30T02:04:46.972Z,94.70
2023-03-30T02:07:20.444Z,94.10
2023-03-30T02:09:53.888Z,94.00
2023-03-30T02:12:26.472Z,94.00
2023-03-30T02:14:59.833Z,93.70
2023-03-30T02:17:33.239Z,93.60
2023-03-30T02:20:05.545Z,93.30
2023-03-30T02:22:36.978Z,93.50
2023-03-30T02:25:09.222Z,93.80
2023-03-30T02:27:40.814Z,93.60
2023-03-30T02:30:13.000Z,93.70
2023-03-30T02:32:49.764Z,93.80
2023-03-30T02:35:40.925Z,93.70
2023-03-30T02:38:30.732Z,93.80
2023-03-30T02:41:16.296Z,93.60
2023-03-30T02:44:14.363Z,93.10
2023-03-30T02:47:13.264Z,92.90
2023-03-30T02:50:04.601Z,92.80
2023-03-30T02:52:37.965Z,92.80
2023-03-30T02:55:24.259Z,92.60
2023-03-30T02:57:57.885Z,92.60
2023-03-30T03:00:34.882Z,92.40
2023-03-30T03:03:08.556Z,92.20
2023-03-30T03:05:40.149Z,92.00
2023-03-30T03:08:11.318Z,91.70
2023-03-30T03:10:42.660Z,91.70
2023-03-30T03:13:15.281Z,91.50
2023-03-30T03:15:47.619Z,91.50
2023-03-30T03:18:19.739Z,91.20
2023-03-30T03:20:51.076Z,90.60
2023-03-30T03:23:22.394Z,90.60
2023-03-30T03:25:53.517Z,90.40
2023-03-30T03:28:24.682Z,90.40
2023-03-30T03:30:55.808Z,90.10
2023-03-30T03:33:28.969Z,89.80
2023-03-30T03:36:01.386Z,89.60
2023-03-30T03:38:34.624Z,88.50
2023-03-30T03:41:06.183Z,88.30
2023-03-30T03:43:37.956Z,87.70
2023-03-30T03:46:09.213Z,86.80
2023-03-30T03:48:46.103Z,86.90
2023-03-30T03:51:16.419Z,85.70
2023-03-30T03:53:48.853Z,86.40
2023-03-30T03:56:20.093Z,86.10
2023-03-30T03:59:12.448Z,85.10
2023-03-30T04:01:43.736Z,85.80
2023-03-30T04:04:15.267Z,83.90
2023-03-30T04:06:46.538Z,82.80
2023-03-30T04:09:17.692Z,83.50
2023-03-30T04:11:48.801Z,81.40
2023-03-30T04:14:20.068Z,80.90
2023-03-30T04:16:52.675Z,80.70
2023-03-30T04:19:25.308Z,79.60
2023-03-30T04:21:56.586Z,79.20
2023-03-30T04:24:29.017Z,79.40
2023-03-30T04:27:03.149Z,79.60
2023-03-30T04:29:34.286Z,78.10
2023-03-30T04:32:05.538Z,77.60
2023-03-30T04:34:37.325Z,76.70
2023-03-30T04:37:08.775Z,76.10
2023-03-30T04:39:40.330Z,75.30
2023-03-30T04:42:12.632Z,75.30
2023-03-30T04:44:44.079Z,75.70
2023-03-30T04:47:15.515Z,74.10
2023-03-30T04:49:46.681Z,73.80
2023-03-30T04:52:18.025Z,73.80
2023-03-30T04:54:49.534Z,73.80
2023-03-30T04:57:21.097Z,73.80
2023-03-30T04:59:54.578Z,73.50
2023-03-30T05:02:26.016Z,73.30
2023-03-30T05:04:57.816Z,75.00
2023-03-30T05:07:31.120Z,73.70
2023-03-30T05:10:01.507Z,73.60
2023-03-30T05:12:32.706Z,73.90
2023-03-30T05:15:03.890Z,72.60
2023-03-30T05:17:39.483Z,72.80
2023-03-30T05:20:11.296Z,71.70
2023-03-30T05:22:42.378Z,72.10
2023-03-30T05:25:14.083Z,71.10
2023-03-30T05:27:45.217Z,70.40
2023-03-30T05:30:16.680Z,74.80
2023-03-30T05:32:48.204Z,70.40
2023-03-30T05:35:19.695Z,69.80
2023-03-30T05:37:52.328Z,69.30
2023-03-30T05:40:24.324Z,69.80
2023-03-30T05:42:55.461Z,69.80
2023-03-30T05:45:26.561Z,69.00
2023-03-30T05:47:57.613Z,69.10
2023-03-30T05:50:29.392Z,67.20
2023-03-30T05:53:01.009Z,67.70
2023-03-30T05:55:32.223Z,66.50
2023-03-30T05:58:04.704Z,66.10
2023-03-30T06:00:37.140Z,66.70
2023-03-30T06:03:08.226Z,65.50
2023-03-30T06:05:40.445Z,65.60
2023-03-30T06:08:12.047Z,66.00
2023-03-30T06:10:43.310Z,66.20
2023-03-30T06:13:14.535Z,66.20
2023-03-30T06:15:47.044Z,67.70
2023-03-30T06:18:18.392Z,66.20
2023-03-30T06:20:53.349Z,65.50
2023-03-30T06:23:24.338Z,65.80
2023-03-30T06:25:56.578Z,67.00
2023-03-30T06:28:28.483Z,66.00
2023-03-30T06:30:59.675Z,65.20
2023-03-30T06:33:31.530Z,64.70
2023-03-30T06:36:03.870Z,67.10
2023-03-30T06:38:36.636Z,63.90
2023-03-30T06:41:10.284Z,63.60
2023-03-30T06:43:42.421Z,64.90
2023-03-30T06:46:13.786Z,64.90
2023-03-30T06:48:45.186Z,64.30
2023-03-30T06:51:17.791Z,61.40
2023-03-30T06:53:50.702Z,62.30
2023-03-30T06:56:22.693Z,69.20
2023-03-30T06:58:54.054Z,66.50
2023-03-30T07:01:26.476Z,66.20
2023-03-30T07:03:57.999Z,65.00
2023-03-30T07:06:29.208Z,65.00
2023-03-30T07:09:00.493Z,64.10
2023-03-30T07:11:31.914Z,63.90
2023-03-30T07:14:03.865Z,62.20
2023-03-30T07:16:35.448Z,62.50
2023-03-30T07:19:08.010Z,63.90
2023-03-30T07:21:40.104Z,72.70
2023-03-30T07:24:11.441Z,74.90
2023-03-30T07:26:42.987Z,66.70
2023-03-30T07:29:14.356Z,66.80
2023-03-30T07:31:46.450Z,66.90
2023-03-30T07:34:18.955Z,75.50
2023-03-30T07:36:50.163Z,74.40
2023-03-30T07:39:21.216Z,75.60
2023-03-30T07:41:52.271Z,65.20
2023-03-30T07:44:26.501Z,72.50
2023-03-30T07:46:58.148Z,89.20
2023-03-30T07:49:29.527Z,89.30
2023-03-30T07:52:03.517Z,88.80
2023-03-30T07:54:36.215Z,87.80
2023-03-30T07:57:07.578Z,87.30
2023-03-30T07:59:41.877Z,84.60
2023-03-30T08:02:15.486Z,85.50
2023-03-30T08:04:46.949Z,84.70
2023-03-30T08:07:19.100Z,85.10
2023-03-30T08:09:50.735Z,85.70
2023-03-30T08:12:22.100Z,85.10
2023-03-30T08:14:53.411Z,87.20
2023-03-30T08:17:25.281Z,87.70
2023-03-30T08:19:57.482Z,84.10
2023-03-30T08:22:30.432Z,82.80
2023-03-30T08:25:01.699Z,83.60
2023-03-30T08:27:33.927Z,82.40
2023-03-30T08:30:05.834Z,83.40
2023-03-30T08:32:39.858Z,82.20
2023-03-30T08:35:11.900Z,81.00
2023-03-30T08:37:43.330Z,81.10
2023-03-30T08:40:19.589Z,79.60
2023-03-30T08:43:05.677Z,79.70
2023-03-30T08:45:46.399Z,79.70
2023-03-30T08:48:29.099Z,80.40
2023-03-30T08:51:02.960Z,78.90
2023-03-30T08:53:36.299Z,80.40
2023-03-30T08:56:22.470Z,80.20
2023-03-30T08:59:07.924Z,79.30
2023-03-30T09:01:56.617Z,80.20
2023-03-30T09:04:42.039Z,83.00
2023-03-30T09:07:18.542Z,81.10
2023-03-30T09:09:52.741Z,80.30
2023-03-30T09:12:30.412Z,80.10
2023-03-30T09:15:04.207Z,78.90
2023-03-30T09:20:47.554Z,77.40
2023-03-30T09:23:20.033Z,75.70
2023-03-30T09:26:01.333Z,73.90
2023-03-30T09:28:42.896Z,75.60
2023-03-30T09:31:42.133Z,79.40
2023-03-30T09:34:31.267Z,75.10
2023-03-30T09:37:10.628Z,76.80
2023-03-30T09:39:42.461Z,76.10
2023-03-30T09:42:50.802Z,76.20
2023-03-30T09:45:24.261Z,77.90
2023-03-30T09:47:55.910Z,79.10
2023-03-30T09:50:29.667Z,78.90
2023-03-30T09:53:04.486Z,78.90
2023-03-30T09:55:37.204Z,78.90
2023-03-30T09:58:32.395Z,78.40
2023-03-30T10:01:09.276Z,79.30
2023-03-30T10:03:41.214Z,79.70
2023-03-30T10:06:15.124Z,80.60
2023-03-30T10:08:54.374Z,81.30
2023-03-30T10:11:33.637Z,81.30
2023-03-30T10:14:06.204Z,82.00
2023-03-30T10:16:38.181Z,81.60
2023-03-30T10:19:11.715Z,81.50
2023-03-30T10:21:44.976Z,81.50
2023-03-30T10:27:26.468Z,79.00
2023-03-30T10:29:57.815Z,79.30
2023-03-30T10:33:05.979Z,79.70
2023-03-30T10:38:48.224Z,82.10
2023-03-30T10:41:57.918Z,82.50
2023-03-30T10:44:36.514Z,82.40
2023-03-30T10:47:18.939Z,82.30
2023-03-30T10:49:58.136Z,82.20
2023-03-30T10:52:34.384Z,82.70
2023-03-30T10:55:22.063Z,83.20
2023-03-30T10:58:01.050Z,83.30
2023-03-30T11:03:30.410Z,82.80
2023-03-30T11:06:22.114Z,82.10
2023-03-30T11:08:55.557Z,83.00
2023-03-30T11:11:31.836Z,84.00
2023-03-30T11:14:08.325Z,85.50
2023-03-30T11:16:53.408Z,86.20
2023-03-30T11:19:47.671Z,65.40
2023-03-30T11:22:37.759Z,66.00
2023-03-30T11:25:20.176Z,66.50
2023-03-30T11:28:03.098Z,67.50
2023-03-30T11:30:36.507Z,66.90
2023-03-30T11:33:22.169Z,67.60
2023-03-30T11:35:56.124Z,67.80
2023-03-30T11:39:01.384Z,68.00
2023-03-30T11:41:47.760Z,68.40
2023-03-30T11:44:19.681Z,68.40
2023-03-30T11:46:59.654Z,68.30
2023-03-30T11:50:11.499Z,68.60
2023-03-30T11:52:45.081Z,68.60
2023-03-30T11:55:21.967Z,68.90
2023-03-30T11:58:06.719Z,68.80
2023-03-30T12:00:57.406Z,68.90
2023-03-30T12:03:50.384Z,69.00
2023-03-30T12:06:27.127Z,69.10
2023-03-30T12:09:00.734Z,69.30
2023-03-30T12:11:56.539Z,69.40
2023-03-30T12:14:36.701Z,69.50
2023-03-30T12:17:16.262Z,69.30
2023-03-30T12:19:56.712Z,69.70
2023-03-30T12:22:36.555Z,69.90
2023-03-30T12:25:28.781Z,69.20
2023-03-30T12:28:02.219Z,70.20
2023-03-30T12:30:37.114Z,70.40
2023-03-30T12:33:21.985Z,70.60
2023-03-30T12:35:58.065Z,70.80
2023-03-30T12:38:40.859Z,71.10
2023-03-30T12:41:17.142Z,71.00
2023-03-30T12:44:00.428Z,72.10
2023-03-30T12:46:41.013Z,70.90
2023-03-30T12:53:06.052Z,71.40
2023-03-30T12:56:05.289Z,71.60
2023-03-30T12:58:55.745Z,71.70
2023-03-30T13:01:45.632Z,71.70
2023-03-30T13:04:24.018Z,71.90
2023-03-30T13:07:03.090Z,72.20
2023-03-30T13:09:36.400Z,72.40
2023-03-30T13:12:12.816Z,72.50
2023-03-30T13:14:43.878Z,72.80
2023-03-30T13:17:18.747Z,72.70
2023-03-30T13:20:15.448Z,73.40
2023-03-30T13:22:39.993Z,73.50
2023-03-30T13:25:32.220Z,73.60
2023-03-30T13:28:06.993Z,73.90
2023-03-30T13:30:39.094Z,73.80
2023-03-30T13:33:18.327Z,73.90
2023-03-30T13:36:00.630Z,74.20
2023-03-30T13:38:41.482Z,74.00
2023-03-30T13:41:24.541Z,74.30
2023-03-30T13:44:26.778Z,74.20
2023-03-30T13:47:00.386Z,74.40
2023-03-30T13:49:46.159Z,74.80
2023-03-30T13:52:19.753Z,75.20
2023-03-30T13:54:52.428Z,75.10
2023-03-30T13:57:28.317Z,75.20
2023-03-30T14:00:03.557Z,75.50
2023-03-30T14:02:35.977Z,75.80
2023-03-30T14:05:20.622Z,75.80
2023-03-30T14:07:58.273Z,75.90
2023-03-30T14:10:29.537Z,75.80
2023-03-30T14:13:01.191Z,75.70
2023-03-30T14:15:37.172Z,75.60
2023-03-30T14:18:09.673Z,75.50
2023-03-30T14:20:49.536Z,75.60
2023-03-30T14:23:31.961Z,75.60
2023-03-30T14:26:05.440Z,75.40
2023-03-30T14:28:39.681Z,75.50
2023-03-30T14:31:16.264Z,75.60
2023-03-30T14:33:47.895Z,75.60
2023-03-30T14:36:21.674Z,75.70
2023-03-30T14:38:58.137Z,76.20
2023-03-30T14:41:28.791Z,76.20
2023-03-30T14:44:11.223Z,76.20
2023-03-30T14:46:44.556Z,76.50
2023-03-30T14:49:34.092Z,76.50
2023-03-30T14:52:20.289Z,76.60
2023-03-30T14:55:05.116Z,76.80
2023-03-30T14:57:30.536Z,76.60
2023-03-30T15:00:07.459Z,76.60
2023-03-30T15:02:40.661Z,76.30
2023-03-30T15:05:12.621Z,76.30
2023-03-30T15:07:46.956Z,76.40
2023-03-30T15:10:26.354Z,76.70
2023-03-30T15:13:08.850Z,76.40
2023-03-30T15:15:43.363Z,76.60
2023-03-30T15:18:16.818Z,76.90
2023-03-30T15:20:48.661Z,77.10
2023-03-30T15:23:19.954Z,77.00
2023-03-30T15:25:51.605Z,77.10
2023-03-30T15:28:24.530Z,77.00
2023-03-30T15:31:01.421Z,77.00
2023-03-30T15:33:45.904Z,76.90
2023-03-30T15:36:23.769Z,77.50
2023-03-30T15:41:51.800Z,77.50
2023-03-30T15:44:23.733Z,77.30
2023-03-30T15:46:59.266Z,77.50
2023-03-30T15:49:48.574Z,77.40
2023-03-30T15:52:22.314Z,77.40
2023-03-30T15:54:56.606Z,77.90
2023-03-30T15:57:32.373Z,77.70
2023-03-30T16:00:06.327Z,77.60
2023-03-30T16:02:42.676Z,77.40
2023-03-30T16:05:23.427Z,77.40
2023-03-30T16:07:58.699Z,77.60
2023-03-30T16:10:33.446Z,77.60
2023-03-30T16:13:06.494Z,77.50
2023-03-30T16:15:37.837Z,77.20
2023-03-30T16:18:09.225Z,77.20
2023-03-30T16:20:40.709Z,77.30
2023-03-30T16:23:13.852Z,77.40
2023-03-30T16:25:47.218Z,77.60
2023-03-30T16:28:19.875Z,77.60
2023-03-30T16:30:56.753Z,77.60
2023-03-30T16:33:31.242Z,77.70
2023-03-30T16:36:06.433Z,77.50
2023-03-30T16:38:40.692Z,77.30
2023-03-30T16:41:17.026Z,77.40
2023-03-30T16:43:49.776Z,77.30
2023-03-30T16:46:23.460Z,77.40
2023-03-30T16:48:59.305Z,77.50
2023-03-30T16:54:59.369Z,77.50
2023-03-30T16:57:33.946Z,77.50
2023-03-30T17:00:07.770Z,77.70
2023-03-30T17:02:38.765Z,77.40
2023-03-30T17:05:11.749Z,77.40
2023-03-30T17:07:43.177Z,77.90
2023-03-30T17:10:20.161Z,77.70
2023-03-30T17:12:50.834Z,77.70
2023-03-30T17:15:23.878Z,78.10
2023-03-30T17:17:56.217Z,78.30
2023-03-30T17:20:37.058Z,78.20
2023-03-30T17:23:09.226Z,78.60
2023-03-30T17:26:02.616Z,78.90
2023-03-30T17:28:40.051Z,78.80
2023-03-30T17:31:14.214Z,78.80
2023-03-30T17:33:45.832Z,79.00
2023-03-30T17:36:25.238Z,79.20
2023-03-30T17:38:56.630Z,78.90
2023-03-30T17:41:29.258Z,78.90
2023-03-30T17:44:03.587Z,79.10
2023-03-30T17:47:29.073Z,78.90
2023-03-30T17:50:01.717Z,80.00
2023-03-30T17:52:32.784Z,79.00
2023-03-30T17:55:04.216Z,79.20
2023-03-30T17:57:35.405Z,79.20
2023-03-30T18:00:09.520Z,79.30
2023-03-30T18:02:40.796Z,79.10
2023-03-30T18:05:12.546Z,79.10
2023-03-30T18:07:43.998Z,79.40
2023-03-30T18:10:36.007Z,79.70
2023-03-30T18:13:09.473Z,79.80
2023-03-30T18:15:42.768Z,80.20
2023-03-30T18:18:18.154Z,80.60
2023-03-30T18:20:50.779Z,80.80
2023-03-30T18:23:23.732Z,80.50
2023-03-30T18:25:55.229Z,80.60
2023-03-30T18:28:30.441Z,80.70
2023-03-30T18:31:13.678Z,81.00
2023-03-30T18:33:46.662Z,81.00
2023-03-30T18:36:18.349Z,81.00
2023-03-30T18:38:52.045Z,81.10
2023-03-30T18:41:24.141Z,81.20
2023-03-30T18:43:57.074Z,81.40
2023-03-30T18:46:28.969Z,81.50
2023-03-30T18:49:05.923Z,82.30
2023-03-30T18:51:35.751Z,82.60
2023-03-30T18:54:07.152Z,81.20
2023-03-30T18:56:39.648Z,81.80
2023-03-30T18:59:13.126Z,82.00
2023-03-30T19:01:46.405Z,90.30
2023-03-30T19:04:17.705Z,81.80
2023-03-30T19:06:49.466Z,81.70
2023-03-30T19:09:29.830Z,82.20
2023-03-30T19:11:54.393Z,81.70
2023-03-30T19:14:25.560Z,81.90
2023-03-30T19:17:01.126Z,82.10
2023-03-30T19:20:07.338Z,82.50
2023-03-30T19:22:38.871Z,82.00
2023-03-30T19:25:10.898Z,82.30
2023-03-30T19:27:52.006Z,82.60
2023-03-30T19:30:23.330Z,83.10
2023-03-30T19:32:59.257Z,83.00
2023-03-30T19:35:30.704Z,82.90
2023-03-30T19:38:01.765Z,83.20
2023-03-30T19:40:32.740Z,83.30
2023-03-30T19:43:03.913Z,83.10
2023-03-30T19:45:35.218Z,83.90
2023-03-30T19:48:06.527Z,83.10
2023-03-30T19:50:39.069Z,82.80
2023-03-30T19:53:10.198Z,82.30
2023-03-30T19:55:41.517Z,82.00
2023-03-30T19:58:19.412Z,82.70
2023-03-30T20:00:50.756Z,82.40
2023-03-30T20:03:21.952Z,82.40
2023-03-30T20:05:53.582Z,82.30
2023-03-30T20:08:25.102Z,82.10
2023-03-30T20:10:59.383Z,82.70
2023-03-30T20:13:29.911Z,83.00
2023-03-30T20:16:00.798Z,83.00
2023-03-30T20:18:32.304Z,83.20
2023-03-30T20:21:05.704Z,83.60
2023-03-30T20:23:37.191Z,83.40
2023-03-30T20:26:08.316Z,83.50
2023-03-30T20:28:39.576Z,83.40
2023-03-30T20:31:10.621Z,83.70
2023-03-30T20:33:42.136Z,83.50
2023-03-30T20:36:13.646Z,83.80
2023-03-30T20:38:46.129Z,84.00
2023-03-30T20:41:19.082Z,84.10
2023-03-30T20:43:57.258Z,83.90
2023-03-30T20:46:27.391Z,84.20
2023-03-30T20:48:59.839Z,83.90
2023-03-30T20:51:31.036Z,83.90
2023-03-30T20:54:02.382Z,84.00
2023-03-30T20:56:33.818Z,84.20
2023-03-30T20:59:05.062Z,84.20
2023-03-30T21:01:37.781Z,84.40
2023-03-30T21:04:09.987Z,84.10
2023-03-30T21:06:41.103Z,84.30
2023-03-30T21:09:12.627Z,83.90
2023-03-30T21:11:46.377Z,85.00
2023-03-30T21:14:40.324Z,84.90
2023-03-30T21:17:11.556Z,85.20
2023-03-30T21:19:42.783Z,85.70
2023-03-30T21:22:13.717Z,85.90
2023-03-30T21:24:44.782Z,85.60
2023-03-30T21:27:35.934Z,86.00
2023-03-30T21:30:07.592Z,86.10
2023-03-30T21:32:38.606Z,91.10
2023-03-30T21:35:10.025Z,95.20
2023-03-30T21:37:41.896Z,85.90
2023-03-30T21:40:13.740Z,85.80
2023-03-30T21:42:44.674Z,86.20
2023-03-30T21:45:15.541Z,86.20
2023-03-30T21:47:46.795Z,86.20
2023-03-30T21:50:17.943Z,86.40
2023-03-30T21:52:49.397Z,86.80
2023-03-30T21:55:20.502Z,86.70
2023-03-30T21:57:51.370Z,87.00
2023-03-30T22:00:22.582Z,86.60
2023-03-30T22:02:53.696Z,86.40
2023-03-30T22:05:25.060Z,87.40
2023-03-30T22:07:56.010Z,87.60
2023-03-30T22:10:32.604Z,87.80
2023-03-30T22:13:07.195Z,87.80
2023-03-30T22:15:39.897Z,87.90
2023-03-30T22:18:58.988Z,87.60
2023-03-30T22:21:34.712Z,88.10
2023-03-30T22:24:27.875Z,88.40
2023-03-30T22:27:18.294Z,88.40
2023-03-30T22:29:49.509Z,88.80
2023-03-30T22:32:21.798Z,88.40
2023-03-30T22:34:53.294Z,88.30
2023-03-30T22:37:25.803Z,88.70
2023-03-30T22:39:57.354Z,88.40
2023-03-30T22:42:48.676Z,88.10
2023-03-30T22:45:19.756Z,88.60
2023-03-30T22:47:50.858Z,89.20
2023-03-30T22:50:23.077Z,89.50
2023-03-30T22:52:54.681Z,89.70
2023-03-30T22:55:26.236Z,90.00
2023-03-30T22:57:58.417Z,89.70
2023-03-30T23:00:29.761Z,89.90
2023-03-30T23:03:01.047Z,89.80
2023-03-30T23:05:33.787Z,90.00
2023-03-30T23:08:05.642Z,89.60
2023-03-30T23:10:37.789Z,89.80
2023-03-30T23:13:08.646Z,90.00
2023-03-30T23:15:39.680Z,90.20
2023-03-30T23:18:10.669Z,90.30
2023-03-30T23:20:41.980Z,90.80
2023-03-30T23:23:12.821Z,90.50
2023-03-30T23:25:54.162Z,90.40
2023-03-30T23:28:27.492Z,90.30
2023-03-30T23:30:58.984Z,90.60
2023-03-30T23:33:29.932Z,90.70
2023-03-30T23:36:01.089Z,90.70
2023-03-30T23:38:34.679Z,90.90
2023-03-30T23:41:05.884Z,90.90
2023-03-30T23:43:37.218Z,90.90
2023-03-30T23:46:08.720Z,90.90
2023-03-30T23:48:40.436Z,91.00
2023-03-30T23:51:12.030Z,91.00
2023-03-30T23:53:42.899Z,91.10
2023-03-30T23:56:18.075Z,91.00
2023-03-30T23:58:49.205Z,91.10
